Time;durP1;ratioP1;P1;durP2;ratioP2;P2;SDS_P1;SDS_P2;PMS_P1;PMS_P2;Temp;Humidity;BMP_temperature;BMP_pressure;BME280_temperature;BME280_humidity;BME280_pressure;Samples;Min_cycle;Max_cycle;Signal;HPM_P1;HPM_P2
2021/12/10 00:01:32;;;;;;;0.47;0.47;;;;;;;;;;5085131;28;20682;-76
2021/12/10 00:04:01;;;;;;;0.00;0.00;;;;;;;;;;5086214;28;20256;-76
2021/12/10 00:06:31;;;;;;;0.00;0.00;;;;;;;;;;5087388;28;20218;-77
2021/12/10 00:09:00;;;;;;;1.23;0.33;;;;;;;;;;5084983;28;20206;-78
2021/12/10 00:11:30;;;;;;;0.60;0.53;;;;;;;;;;5086375;28;20202;-78
2021/12/10 00:13:57;;;;;;;1.77;1.67;;;;;;;;;;5084430;28;20206;-78
2021/12/10 00:16:25;;;;;;;1.77;0.53;;;;;;;;;;5087327;28;20198;-79
2021/12/10 00:19:06;;;;;;;0.40;0.40;;;;;;;;;;5085342;28;20285;-78
2021/12/10 00:21:35;;;;;;;1.53;1.43;;;;;;;;;;5085904;28;20642;-77
2021/12/10 00:24:03;;;;;;;0.33;0.33;;;;;;;;;;5082509;28;20290;-78
2021/12/10 00:26:30;;;;;;;0.00;0.00;;;;;;;;;;5087575;28;20255;-78
2021/12/10 00:29:03;;;;;;;0.50;0.50;;;;;;;;;;5084693;28;20210;-78
2021/12/10 00:31:43;;;;;;;0.17;0.17;;;;;;;;;;5086399;28;20204;-78
2021/12/10 00:34:14;;;;;;;0.60;0.60;;;;;;;;;;5084635;28;20217;-78
2021/12/10 00:36:43;;;;;;;1.37;1.27;;;;;;;;;;5086163;28;20202;-79
2021/12/10 00:39:12;;;;;;;0.57;0.57;;;;;;;;;;5086584;28;20206;-78
2021/12/10 00:41:40;;;;;;;1.60;1.30;;;;;;;;;;5087043;28;20202;-79
2021/12/10 00:44:08;;;;;;;0.40;0.40;;;;;;;;;;5084233;28;20222;-77
2021/12/10 00:46:36;;;;;;;0.30;0.30;;;;;;;;;;5085028;28;20198;-78
2021/12/10 00:49:04;;;;;;;0.10;0.10;;;;;;;;;;5085112;28;20559;-79
2021/12/10 00:51:33;;;;;;;2.13;0.97;;;;;;;;;;5085173;28;20214;-78
2021/12/10 00:54:01;;;;;;;1.03;0.83;;;;;;;;;;5083662;28;20227;-81
2021/12/10 00:56:28;;;;;;;0.20;0.20;;;;;;;;;;5086796;28;20683;-79
2021/12/10 00:58:56;;;;;;;0.53;0.40;;;;;;;;;;5085916;28;20202;-78
2021/12/10 01:01:25;;;;;;;0.33;0.33;;;;;;;;;;5084537;28;20202;-78
2021/12/10 01:03:54;;;;;;;0.97;0.97;;;;;;;;;;5084703;28;20308;-77
2021/12/10 01:06:23;;;;;;;0.93;0.93;;;;;;;;;;5086801;28;20205;-77
2021/12/10 01:08:54;;;;;;;1.17;1.07;;;;;;;;;;5086614;28;20293;-80
2021/12/10 01:11:24;;;;;;;0.40;0.40;;;;;;;;;;5086266;28;20206;-79
2021/12/10 01:13:55;;;;;;;0.10;0.10;;;;;;;;;;5084242;28;20237;-78
2021/12/10 01:24:54;;;;;;;0.27;0.27;;;;;;;;;;5085091;28;20324;-78
2021/12/10 01:27:30;;;;;;;0.07;0.07;;;;;;;;;;5084058;28;20662;-78
2021/12/10 01:29:59;;;;;;;0.07;0.07;;;;;;;;;;5086026;28;20210;-79
2021/12/10 01:32:27;;;;;;;0.57;0.57;;;;;;;;;;5085109;28;20987;-78
2021/12/10 01:34:55;;;;;;;0.00;0.00;;;;;;;;;;5082509;28;20208;-77
2021/12/10 01:37:23;;;;;;;0.13;0.10;;;;;;;;;;5083891;28;20206;-78
2021/12/10 01:39:52;;;;;;;0.13;0.13;;;;;;;;;;5085786;28;20695;-78
2021/12/10 01:42:34;;;;;;;0.10;0.10;;;;;;;;;;5085045;28;20217;-78
2021/12/10 01:45:04;;;;;;;1.43;1.03;;;;;;;;;;5083643;28;20216;-78
2021/12/10 01:47:33;;;;;;;0.00;0.00;;;;;;;;;;5084002;28;20628;-79
2021/12/10 01:50:01;;;;;;;1.57;1.47;;;;;;;;;;5085169;28;20214;-77
2021/12/10 01:52:29;;;;;;;0.10;0.10;;;;;;;;;;5084418;28;20678;-78
2021/12/10 01:54:59;;;;;;;0.00;0.00;;;;;;;;;;5084091;28;20238;-77
2021/12/10 01:57:27;;;;;;;1.63;1.07;;;;;;;;;;5085127;28;20194;-77
2021/12/10 01:59:55;;;;;;;0.43;0.43;;;;;;;;;;5083925;28;20198;-75
2021/12/10 02:02:25;;;;;;;0.00;0.00;;;;;;;;;;5084549;28;20198;-77
2021/12/10 02:04:53;;;;;;;1.00;1.00;;;;;;;;;;5083230;28;20960;-78
2021/12/10 02:07:22;;;;;;;0.10;0.10;;;;;;;;;;5084913;28;20202;-78
2021/12/10 02:09:50;;;;;;;0.17;0.17;;;;;;;;;;5083472;28;20652;-78
2021/12/10 02:12:19;;;;;;;0.00;0.00;;;;;;;;;;5083608;28;20202;-77
2021/12/10 02:14:50;;;;;;;0.33;0.33;;;;;;;;;;5084587;28;20195;-77
2021/12/10 02:17:18;;;;;;;1.50;0.50;;;;;;;;;;5085665;28;20718;-76
2021/12/10 02:19:46;;;;;;;0.70;0.70;;;;;;;;;;5083320;28;20198;-76
2021/12/10 02:22:14;;;;;;;0.70;0.70;;;;;;;;;;5085274;28;20216;-77
2021/12/10 02:24:42;;;;;;;0.00;0.00;;;;;;;;;;5084959;28;20223;-78
2021/12/10 02:27:10;;;;;;;0.37;0.37;;;;;;;;;;5085094;28;20222;-78
2021/12/10 02:29:39;;;;;;;0.37;0.30;;;;;;;;;;5084779;28;20206;-80
2021/12/10 02:32:09;;;;;;;0.07;0.07;;;;;;;;;;5083387;28;20198;-79
2021/12/10 02:34:38;;;;;;;0.50;0.23;;;;;;;;;;5083264;28;20210;-78
2021/12/10 02:37:06;;;;;;;0.90;0.87;;;;;;;;;;5082274;28;20206;-76
2021/12/10 02:39:35;;;;;;;0.10;0.10;;;;;;;;;;5083974;28;20321;-77
2021/12/10 02:42:03;;;;;;;0.23;0.23;;;;;;;;;;5085519;28;20196;-78
2021/12/10 02:44:31;;;;;;;0.20;0.20;;;;;;;;;;5082806;28;20237;-77
2021/12/10 02:46:59;;;;;;;0.00;0.00;;;;;;;;;;5084944;28;20215;-80
2021/12/10 02:49:27;;;;;;;0.00;0.00;;;;;;;;;;5088741;28;20297;-79
2021/12/10 02:51:55;;;;;;;0.20;0.20;;;;;;;;;;5086117;28;20206;-76
2021/12/10 02:54:33;;;;;;;0.50;0.50;;;;;;;;;;5088304;28;20210;-76
2021/12/10 02:57:02;;;;;;;0.07;0.07;;;;;;;;;;5089566;28;20198;-79
2021/12/10 02:59:29;;;;;;;0.13;0.13;;;;;;;;;;5086502;28;20289;-79
2021/12/10 03:01:58;;;;;;;0.30;0.30;;;;;;;;;;5084897;28;20198;-77
2021/12/10 03:04:28;;;;;;;0.47;0.47;;;;;;;;;;5085104;28;20703;-78
2021/12/10 03:06:57;;;;;;;0.10;0.10;;;;;;;;;;5089472;28;20582;-77
2021/12/10 03:09:25;;;;;;;0.00;0.00;;;;;;;;;;5088093;28;20202;-77
2021/12/10 03:11:56;;;;;;;0.10;0.10;;;;;;;;;;5085810;28;20206;-78
2021/12/10 03:14:26;;;;;;;0.27;0.27;;;;;;;;;;5087168;28;20244;-77
2021/12/10 03:16:54;;;;;;;0.27;0.27;;;;;;;;;;5088579;28;20201;-78
2021/12/10 03:19:22;;;;;;;0.50;0.50;;;;;;;;;;5088283;28;20194;-79
2021/12/10 03:21:51;;;;;;;0.10;0.10;;;;;;;;;;5085158;28;20580;-77
2021/12/10 03:24:22;;;;;;;0.00;0.00;;;;;;;;;;5085477;28;20237;-78
2021/12/10 03:26:51;;;;;;;0.00;0.00;;;;;;;;;;5089080;28;20201;-75
2021/12/10 03:29:19;;;;;;;0.50;0.30;;;;;;;;;;5088194;28;21028;-77
2021/12/10 03:31:49;;;;;;;1.80;0.37;;;;;;;;;;5085222;28;20207;-77
2021/12/10 03:34:16;;;;;;;0.10;0.10;;;;;;;;;;5083730;28;20737;-78
2021/12/10 03:36:46;;;;;;;0.50;0.40;;;;;;;;;;5087244;28;20286;-79
2021/12/10 03:39:14;;;;;;;0.10;0.10;;;;;;;;;;5088232;28;20216;-79
2021/12/10 03:41:42;;;;;;;0.00;0.00;;;;;;;;;;5086295;28;20312;-79
2021/12/10 03:44:09;;;;;;;0.00;0.00;;;;;;;;;;5086990;28;20230;-81
2021/12/10 03:46:37;;;;;;;0.10;0.10;;;;;;;;;;5087905;28;20194;-78
2021/12/10 03:49:06;;;;;;;0.10;0.10;;;;;;;;;;5087353;28;20205;-79
2021/12/10 03:51:34;;;;;;;0.67;0.40;;;;;;;;;;5086021;28;20209;-80
2021/12/10 03:54:02;;;;;;;0.00;0.00;;;;;;;;;;5083732;28;20202;-80
2021/12/10 03:56:31;;;;;;;0.00;0.00;;;;;;;;;;5085104;28;20205;-80
2021/12/10 03:58:59;;;;;;;0.00;0.00;;;;;;;;;;5087890;28;20213;-79
2021/12/10 04:01:29;;;;;;;0.10;0.10;;;;;;;;;;5084227;28;20286;-78
2021/12/10 04:03:57;;;;;;;0.00;0.00;;;;;;;;;;5085034;28;20225;-78
2021/12/10 04:06:26;;;;;;;0.00;0.00;;;;;;;;;;5085496;28;20209;-77
2021/12/10 04:08:54;;;;;;;0.60;0.40;;;;;;;;;;5085215;28;20201;-78
2021/12/10 04:11:22;;;;;;;0.00;0.00;;;;;;;;;;5083713;28;20220;-79
2021/12/10 04:13:51;;;;;;;0.00;0.00;;;;;;;;;;5086962;28;20199;-79
2021/12/10 04:16:19;;;;;;;0.00;0.00;;;;;;;;;;5085195;28;20207;-78
2021/12/10 04:18:46;;;;;;;0.00;0.00;;;;;;;;;;5086962;28;20237;-77
2021/12/10 04:21:14;;;;;;;0.20;0.20;;;;;;;;;;5081693;28;20209;-80
2021/12/10 04:23:43;;;;;;;0.00;0.00;;;;;;;;;;5085955;28;20317;-80
2021/12/10 04:26:11;;;;;;;0.10;0.00;;;;;;;;;;5087714;28;20210;-80
2021/12/10 04:28:39;;;;;;;6.00;0.20;;;;;;;;;;5088169;28;20206;-79
2021/12/10 04:31:06;;;;;;;0.00;0.00;;;;;;;;;;5085411;28;20229;-78
2021/12/10 04:33:34;;;;;;;0.10;0.10;;;;;;;;;;5083422;28;20210;-79
2021/12/10 04:36:02;;;;;;;0.00;0.00;;;;;;;;;;5086761;28;20206;-78
2021/12/10 04:38:32;;;;;;;0.00;0.00;;;;;;;;;;5086085;28;20270;-78
2021/12/10 04:41:04;;;;;;;0.10;0.10;;;;;;;;;;5083670;28;20222;-78
2021/12/10 04:43:32;;;;;;;0.00;0.00;;;;;;;;;;5082879;28;20206;-78
2021/12/10 04:46:00;;;;;;;0.37;0.00;;;;;;;;;;5085902;28;20746;-77
2021/12/10 04:48:29;;;;;;;0.00;0.00;;;;;;;;;;5086767;28;20202;-78
2021/12/10 04:50:57;;;;;;;0.10;0.10;;;;;;;;;;5084724;28;20208;-78
2021/12/10 04:53:25;;;;;;;0.00;0.00;;;;;;;;;;5083588;28;20202;-79
2021/12/10 04:55:52;;;;;;;0.00;0.00;;;;;;;;;;5088008;28;21053;-78
2021/12/10 04:58:21;;;;;;;1.37;0.33;;;;;;;;;;5085682;28;20220;-78
2021/12/10 05:00:51;;;;;;;0.00;0.00;;;;;;;;;;5086164;28;20224;-78
2021/12/10 05:03:19;;;;;;;0.03;0.03;;;;;;;;;;5082651;28;20686;-77
2021/12/10 05:05:47;;;;;;;0.00;0.00;;;;;;;;;;5084103;28;20240;-77
2021/12/10 05:08:16;;;;;;;0.00;0.00;;;;;;;;;;5085714;28;20208;-77
2021/12/10 05:10:44;;;;;;;0.27;0.27;;;;;;;;;;5084049;28;20245;-76
2021/12/10 05:13:11;;;;;;;0.00;0.00;;;;;;;;;;5084095;28;20198;-77
2021/12/10 05:15:40;;;;;;;0.00;0.00;;;;;;;;;;5084098;28;20203;-77
2021/12/10 05:18:12;;;;;;;0.23;0.23;;;;;;;;;;5086183;28;20200;-77
2021/12/10 05:20:41;;;;;;;0.10;0.10;;;;;;;;;;5085286;28;20770;-77
2021/12/10 05:23:09;;;;;;;0.00;0.00;;;;;;;;;;5083002;28;20206;-76
2021/12/10 05:25:36;;;;;;;0.00;0.00;;;;;;;;;;5085907;28;20227;-75
2021/12/10 05:28:04;;;;;;;0.00;0.00;;;;;;;;;;5085470;28;20924;-77
2021/12/10 05:30:32;;;;;;;0.00;0.00;;;;;;;;;;5079873;28;20206;-77
2021/12/10 05:33:02;;;;;;;0.13;0.13;;;;;;;;;;5079247;28;20679;-77
2021/12/10 05:35:29;;;;;;;0.00;0.00;;;;;;;;;;5087282;28;20194;-77
2021/12/10 05:37:57;;;;;;;0.00;0.00;;;;;;;;;;5090018;28;20200;-77
2021/12/10 05:40:26;;;;;;;0.00;0.00;;;;;;;;;;5085933;28;20230;-78
2021/12/10 05:42:54;;;;;;;0.03;0.03;;;;;;;;;;5085452;28;20227;-76
2021/12/10 05:45:22;;;;;;;0.00;0.00;;;;;;;;;;5084252;28;20226;-78
2021/12/10 05:47:49;;;;;;;0.07;0.07;;;;;;;;;;5079997;28;20194;-78
2021/12/10 05:50:19;;;;;;;0.00;0.00;;;;;;;;;;5083043;28;20209;-78
2021/12/10 05:52:47;;;;;;;0.17;0.13;;;;;;;;;;5082057;28;20207;-77
2021/12/10 05:55:14;;;;;;;0.00;0.00;;;;;;;;;;5086152;28;20216;-77
2021/12/10 05:57:42;;;;;;;0.00;0.00;;;;;;;;;;5086998;28;20205;-77
2021/12/10 06:00:11;;;;;;;0.37;0.37;;;;;;;;;;5083803;28;20199;-77
2021/12/10 06:02:39;;;;;;;0.20;0.20;;;;;;;;;;5082269;28;20202;-77
2021/12/10 06:05:08;;;;;;;0.20;0.20;;;;;;;;;;5083858;28;20597;-77
2021/12/10 06:07:38;;;;;;;0.33;0.33;;;;;;;;;;5085858;28;20207;-78
2021/12/10 06:10:06;;;;;;;0.00;0.00;;;;;;;;;;5083512;28;20203;-78
2021/12/10 06:12:34;;;;;;;0.00;0.00;;;;;;;;;;5079236;28;20203;-77
2021/12/10 06:15:01;;;;;;;0.10;0.10;;;;;;;;;;5084667;28;20257;-77
2021/12/10 06:17:29;;;;;;;0.10;0.10;;;;;;;;;;5087585;28;20201;-77
2021/12/10 06:19:56;;;;;;;0.10;0.10;;;;;;;;;;5084848;28;20209;-77
2021/12/10 06:22:23;;;;;;;0.00;0.00;;;;;;;;;;5079785;28;20198;-77
2021/12/10 06:24:52;;;;;;;0.00;0.00;;;;;;;;;;5088758;28;20240;-78
2021/12/10 06:27:20;;;;;;;0.00;0.00;;;;;;;;;;5090128;28;20681;-77
2021/12/10 06:29:47;;;;;;;0.00;0.00;;;;;;;;;;5088976;28;20225;-77
2021/12/10 06:32:14;;;;;;;0.10;0.10;;;;;;;;;;5086611;28;20217;-77
2021/12/10 06:34:42;;;;;;;0.43;0.33;;;;;;;;;;5088741;28;20201;-76
2021/12/10 06:37:09;;;;;;;0.00;0.00;;;;;;;;;;5088372;28;20222;-76
2021/12/10 06:39:37;;;;;;;0.00;0.00;;;;;;;;;;5088746;28;20218;-76
2021/12/10 06:42:06;;;;;;;0.00;0.00;;;;;;;;;;5085876;28;21373;-76
2021/12/10 06:44:33;;;;;;;0.00;0.00;;;;;;;;;;5089037;28;20229;-76
2021/12/10 06:47:05;;;;;;;0.03;0.03;;;;;;;;;;5087313;28;20222;-76
2021/12/10 06:49:33;;;;;;;0.00;0.00;;;;;;;;;;5087336;28;20230;-77
2021/12/10 06:52:01;;;;;;;0.00;0.00;;;;;;;;;;5082585;28;20683;-77
2021/12/10 06:54:29;;;;;;;0.00;0.00;;;;;;;;;;5088731;28;20195;-78
2021/12/10 06:56:57;;;;;;;0.00;0.00;;;;;;;;;;5086063;28;20225;-78
2021/12/10 06:59:26;;;;;;;0.03;0.03;;;;;;;;;;5086589;28;20198;-78
2021/12/10 07:01:54;;;;;;;0.00;0.00;;;;;;;;;;5086163;28;20217;-77
2021/12/10 07:04:22;;;;;;;0.00;0.00;;;;;;;;;;5089314;28;20259;-78
2021/12/10 07:06:52;;;;;;;0.00;0.00;;;;;;;;;;5086776;28;20571;-77
2021/12/10 07:09:21;;;;;;;0.00;0.00;;;;;;;;;;5087351;28;20275;-77
2021/12/10 07:11:49;;;;;;;0.00;0.00;;;;;;;;;;5087091;28;20213;-76
2021/12/10 07:14:16;;;;;;;0.00;0.00;;;;;;;;;;5088792;28;20289;-77
2021/12/10 07:16:46;;;;;;;0.00;0.00;;;;;;;;;;5084883;28;20788;-77
2021/12/10 07:19:13;;;;;;;0.43;0.37;;;;;;;;;;5087442;28;20260;-77
2021/12/10 07:21:41;;;;;;;0.00;0.00;;;;;;;;;;5088938;28;20576;-77
2021/12/10 07:24:10;;;;;;;1.23;0.40;;;;;;;;;;5088309;28;20199;-77
2021/12/10 07:26:38;;;;;;;0.00;0.00;;;;;;;;;;5086723;28;20237;-76
2021/12/10 07:29:06;;;;;;;0.00;0.00;;;;;;;;;;5085908;28;21097;-77
2021/12/10 07:31:34;;;;;;;0.17;0.17;;;;;;;;;;5086486;28;20202;-78
2021/12/10 07:34:03;;;;;;;0.73;0.47;;;;;;;;;;5082480;28;20207;-76
2021/12/10 07:36:30;;;;;;;0.00;0.00;;;;;;;;;;5080543;28;20202;-77
2021/12/10 07:38:57;;;;;;;0.00;0.00;;;;;;;;;;5079917;28;20210;-76
2021/12/10 07:41:25;;;;;;;0.00;0.00;;;;;;;;;;5078007;28;20249;-76
2021/12/10 07:43:53;;;;;;;0.00;0.00;;;;;;;;;;5084864;28;20306;-77
2021/12/10 07:46:21;;;;;;;0.00;0.00;;;;;;;;;;5088345;28;20260;-77
2021/12/10 07:48:49;;;;;;;0.00;0.00;;;;;;;;;;5088290;28;20205;-77
2021/12/10 07:51:21;;;;;;;0.00;0.00;;;;;;;;;;5086562;28;20217;-76
2021/12/10 07:53:51;;;;;;;0.00;0.00;;;;;;;;;;5078530;28;20962;-76
2021/12/10 07:56:19;;;;;;;0.00;0.00;;;;;;;;;;5077110;28;20212;-75
2021/12/10 07:58:46;;;;;;;0.00;0.00;;;;;;;;;;5069760;28;20286;-76
2021/12/10 08:01:17;;;;;;;0.00;0.00;;;;;;;;;;5074462;28;20198;-76
2021/12/10 08:03:44;;;;;;;0.00;0.00;;;;;;;;;;5073254;28;20207;-75
2021/12/10 08:06:12;;;;;;;0.00;0.00;;;;;;;;;;5075429;28;20299;-75
2021/12/10 08:08:41;;;;;;;0.43;0.43;;;;;;;;;;5074768;28;20225;-75
2021/12/10 08:11:08;;;;;;;0.00;0.00;;;;;;;;;;5075416;28;20198;-75
2021/12/10 08:13:36;;;;;;;0.00;0.00;;;;;;;;;;5077335;28;20585;-74
2021/12/10 08:16:03;;;;;;;0.00;0.00;;;;;;;;;;5075016;28;20202;-75
2021/12/10 08:18:31;;;;;;;0.00;0.00;;;;;;;;;;5074121;28;20670;-72
2021/12/10 08:20:59;;;;;;;0.00;0.00;;;;;;;;;;5071075;28;20215;-76
2021/12/10 08:23:26;;;;;;;0.13;0.13;;;;;;;;;;5074583;28;21025;-73
2021/12/10 08:25:55;;;;;;;0.40;0.10;;;;;;;;;;5077196;28;20226;-74
2021/12/10 08:28:25;;;;;;;0.00;0.00;;;;;;;;;;5075456;28;20667;-77
2021/12/10 08:30:53;;;;;;;0.00;0.00;;;;;;;;;;5082315;28;20289;-75
2021/12/10 08:33:21;;;;;;;0.00;0.00;;;;;;;;;;5085125;28;20226;-73
2021/12/10 08:35:51;;;;;;;0.00;0.00;;;;;;;;;;5085974;28;20686;-74
2021/12/10 08:38:19;;;;;;;0.00;0.00;;;;;;;;;;5084518;28;20200;-74
2021/12/10 08:40:49;;;;;;;0.20;0.20;;;;;;;;;;5085641;28;20320;-74
2021/12/10 08:43:19;;;;;;;0.50;0.43;;;;;;;;;;5080623;28;20531;-77
2021/12/10 08:45:46;;;;;;;0.00;0.00;;;;;;;;;;5075219;28;20232;-74
2021/12/10 08:48:13;;;;;;;0.00;0.00;;;;;;;;;;5076900;28;20213;-76
2021/12/10 08:50:41;;;;;;;0.00;0.00;;;;;;;;;;5075364;28;20206;-79
2021/12/10 08:53:12;;;;;;;0.00;0.00;;;;;;;;;;5076078;28;20217;-78
2021/12/10 08:55:40;;;;;;;0.00;0.00;;;;;;;;;;5076339;28;20228;-78
2021/12/10 08:58:08;;;;;;;0.00;0.00;;;;;;;;;;5073733;28;20213;-75
2021/12/10 09:00:37;;;;;;;0.00;0.00;;;;;;;;;;5080418;28;20298;-80
2021/12/10 09:03:06;;;;;;;0.40;0.23;;;;;;;;;;5085383;28;20197;-77
2021/12/10 09:05:33;;;;;;;0.00;0.00;;;;;;;;;;5084174;28;20715;-77
2021/12/10 09:08:00;;;;;;;0.00;0.00;;;;;;;;;;5079010;28;20204;-80
2021/12/10 09:10:31;;;;;;;0.00;0.00;;;;;;;;;;5080636;28;20210;-79
2021/12/10 09:12:59;;;;;;;0.00;0.00;;;;;;;;;;5075515;28;20801;-81
2021/12/10 09:15:27;;;;;;;0.00;0.00;;;;;;;;;;5077093;28;20226;-81
2021/12/10 09:17:59;;;;;;;0.00;0.00;;;;;;;;;;5077034;28;20218;-78
2021/12/10 09:20:29;;;;;;;0.00;0.00;;;;;;;;;;5076617;28;20212;-78
2021/12/10 09:22:56;;;;;;;0.00;0.00;;;;;;;;;;5076106;28;20217;-79
2021/12/10 09:25:24;;;;;;;0.00;0.00;;;;;;;;;;5074445;28;20230;-79
2021/12/10 09:27:51;;;;;;;0.00;0.00;;;;;;;;;;5077123;28;20197;-79
2021/12/10 09:30:21;;;;;;;0.00;0.00;;;;;;;;;;5076348;28;20202;-79
2021/12/10 09:32:49;;;;;;;0.00;0.00;;;;;;;;;;5075974;28;20190;-78
2021/12/10 09:35:20;;;;;;;0.10;0.10;;;;;;;;;;5074882;28;20252;-79
2021/12/10 09:37:48;;;;;;;0.00;0.00;;;;;;;;;;5076915;28;20217;-79
2021/12/10 09:40:18;;;;;;;0.00;0.00;;;;;;;;;;5077202;28;20660;-79
2021/12/10 09:42:46;;;;;;;0.00;0.00;;;;;;;;;;5076728;28;21378;-79
2021/12/10 09:45:15;;;;;;;0.00;0.00;;;;;;;;;;5076974;28;20683;-79
2021/12/10 09:47:42;;;;;;;0.00;0.00;;;;;;;;;;5078217;28;20550;-79
2021/12/10 09:50:12;;;;;;;0.00;0.00;;;;;;;;;;5074767;28;20206;-81
2021/12/10 09:52:41;;;;;;;0.00;0.00;;;;;;;;;;5078735;28;20214;-80
2021/12/10 09:55:10;;;;;;;0.00;0.00;;;;;;;;;;5077392;28;20209;-81
2021/12/10 09:57:39;;;;;;;0.00;0.00;;;;;;;;;;5080002;28;20213;-81
2021/12/10 10:00:09;;;;;;;0.00;0.00;;;;;;;;;;5084320;28;20206;-77
2021/12/10 10:02:38;;;;;;;0.00;0.00;;;;;;;;;;5078823;28;20271;-74
2021/12/10 10:05:06;;;;;;;0.00;0.00;;;;;;;;;;5084123;28;20222;-75
2021/12/10 10:07:35;;;;;;;0.00;0.00;;;;;;;;;;5088651;28;20301;-78
2021/12/10 10:10:07;;;;;;;0.00;0.00;;;;;;;;;;5087988;28;20198;-76
2021/12/10 10:12:36;;;;;;;0.00;0.00;;;;;;;;;;5081086;28;20226;-79
2021/12/10 10:15:07;;;;;;;0.33;0.33;;;;;;;;;;5080391;28;20220;-76
2021/12/10 10:17:34;;;;;;;0.07;0.07;;;;;;;;;;5080064;28;20202;-76
2021/12/10 10:20:02;;;;;;;0.00;0.00;;;;;;;;;;5087880;28;20653;-75
2021/12/10 10:22:30;;;;;;;0.10;0.10;;;;;;;;;;5085093;28;20572;-77
2021/12/10 10:24:58;;;;;;;0.00;0.00;;;;;;;;;;5087290;28;20214;-77
2021/12/10 10:27:29;;;;;;;0.00;0.00;;;;;;;;;;5077295;28;20221;-76
2021/12/10 10:29:58;;;;;;;0.00;0.00;;;;;;;;;;5081633;28;20210;-77
2021/12/10 10:32:27;;;;;;;0.00;0.00;;;;;;;;;;5089959;28;20593;-76
2021/12/10 10:34:58;;;;;;;0.00;0.00;;;;;;;;;;5078379;28;20209;-76
2021/12/10 10:37:26;;;;;;;0.00;0.00;;;;;;;;;;5081079;28;20202;-77
2021/12/10 10:39:53;;;;;;;0.00;0.00;;;;;;;;;;5079078;28;20324;-77
2021/12/10 10:42:24;;;;;;;0.00;0.00;;;;;;;;;;5079164;28;20203;-78
2021/12/10 10:44:54;;;;;;;0.00;0.00;;;;;;;;;;5078686;28;20978;-77
2021/12/10 10:47:23;;;;;;;0.00;0.00;;;;;;;;;;5077849;28;20245;-77
2021/12/10 10:49:54;;;;;;;0.00;0.00;;;;;;;;;;5078985;28;20344;-80
2021/12/10 10:52:24;;;;;;;0.00;0.00;;;;;;;;;;5083780;28;20202;-81
2021/12/10 10:54:54;;;;;;;0.00;0.00;;;;;;;;;;5083377;28;20211;-75
2021/12/10 10:57:24;;;;;;;0.00;0.00;;;;;;;;;;5083944;28;21690;-76
2021/12/10 10:59:56;;;;;;;1.03;1.03;;;;;;;;;;5092938;28;20210;-74
2021/12/10 11:02:26;;;;;;;0.00;0.00;;;;;;;;;;5097156;28;20210;-77
2021/12/10 11:04:53;;;;;;;0.00;0.00;;;;;;;;;;5072351;28;20210;-73
2021/12/10 11:07:23;;;;;;;0.00;0.00;;;;;;;;;;5077266;28;20236;-75
2021/12/10 11:09:53;;;;;;;0.00;0.00;;;;;;;;;;5074265;28;20201;-75
2021/12/10 11:12:26;;;;;;;0.00;0.00;;;;;;;;;;5098311;28;20188;-75
2021/12/10 11:14:56;;;;;;;0.00;0.00;;;;;;;;;;5078025;28;20545;-75
2021/12/10 11:17:28;;;;;;;0.00;0.00;;;;;;;;;;5076038;28;20225;-75
2021/12/10 11:19:57;;;;;;;0.00;0.00;;;;;;;;;;5074900;28;20202;-75
2021/12/10 11:22:25;;;;;;;0.00;0.00;;;;;;;;;;5076815;28;20198;-74
2021/12/10 11:24:55;;;;;;;0.00;0.00;;;;;;;;;;5074497;28;20586;-74
2021/12/10 11:27:26;;;;;;;0.10;0.10;;;;;;;;;;5077999;28;20312;-74
2021/12/10 11:29:56;;;;;;;0.67;0.67;;;;;;;;;;5073479;28;21430;-75
2021/12/10 11:32:34;;;;;;;0.00;0.00;;;;;;;;;;5076950;28;20207;-73
2021/12/10 11:35:08;;;;;;;0.00;0.00;;;;;;;;;;5082757;28;20203;-74
2021/12/10 11:37:42;;;;;;;0.00;0.00;;;;;;;;;;5076858;28;20241;-76
2021/12/10 11:40:23;;;;;;;0.10;0.10;;;;;;;;;;5079236;28;20250;-75
2021/12/10 11:42:57;;;;;;;0.00;0.00;;;;;;;;;;5077174;28;20582;-78
2021/12/10 11:45:34;;;;;;;0.00;0.00;;;;;;;;;;5072999;28;20209;-73
2021/12/10 11:48:11;;;;;;;0.00;0.00;;;;;;;;;;5078163;28;20229;-80
2021/12/10 11:50:39;;;;;;;0.00;0.00;;;;;;;;;;5078200;28;20227;-78
2021/12/10 11:53:10;;;;;;;0.00;0.00;;;;;;;;;;5074360;28;20293;-79
2021/12/10 11:55:38;;;;;;;0.00;0.00;;;;;;;;;;5082734;28;20285;-77
2021/12/10 11:58:06;;;;;;;0.10;0.10;;;;;;;;;;5077854;28;20199;-77
2021/12/10 12:00:36;;;;;;;0.00;0.00;;;;;;;;;;5076929;28;21298;-75
2021/12/10 12:03:06;;;;;;;0.00;0.00;;;;;;;;;;5077729;28;20205;-78
2021/12/10 12:05:36;;;;;;;0.00;0.00;;;;;;;;;;5076085;28;20198;-81
2021/12/10 12:08:04;;;;;;;0.00;0.00;;;;;;;;;;5078509;28;20335;-78
2021/12/10 12:10:37;;;;;;;0.00;0.00;;;;;;;;;;5078309;28;20289;-77
2021/12/10 12:13:09;;;;;;;0.00;0.00;;;;;;;;;;5075750;28;20210;-75
2021/12/10 12:15:39;;;;;;;0.00;0.00;;;;;;;;;;5073130;28;20202;-76
2021/12/10 12:18:08;;;;;;;0.00;0.00;;;;;;;;;;5073240;28;20202;-78
2021/12/10 12:20:37;;;;;;;0.00;0.00;;;;;;;;;;5074557;28;20304;-75
2021/12/10 12:25:54;;;;;;;0.00;0.00;;;;;;;;;;5077377;28;20214;-79
2021/12/10 12:28:24;;;;;;;0.00;0.00;;;;;;;;;;5079544;28;20204;-78
2021/12/10 12:30:56;;;;;;;0.00;0.00;;;;;;;;;;5083573;28;20213;-80
2021/12/10 12:33:25;;;;;;;0.00;0.00;;;;;;;;;;5085830;28;20194;-81
2021/12/10 12:35:53;;;;;;;0.00;0.00;;;;;;;;;;5083227;28;20297;-73
2021/12/10 12:38:26;;;;;;;0.00;0.00;;;;;;;;;;5078608;28;20213;-73
2021/12/10 12:41:08;;;;;;;0.00;0.00;;;;;;;;;;5075326;28;20307;-77
2021/12/10 12:43:36;;;;;;;0.00;0.00;;;;;;;;;;5077009;28;20206;-79
2021/12/10 12:46:07;;;;;;;0.00;0.00;;;;;;;;;;5079472;28;20203;-81
2021/12/10 12:48:35;;;;;;;0.00;0.00;;;;;;;;;;5076048;28;20198;-81
2021/12/10 12:51:11;;;;;;;0.00;0.00;;;;;;;;;;5073682;28;20230;-79
2021/12/10 12:53:39;;;;;;;0.00;0.00;;;;;;;;;;5078360;28;20945;-78
2021/12/10 12:56:10;;;;;;;0.00;0.00;;;;;;;;;;5074645;28;20216;-78
2021/12/10 12:58:41;;;;;;;0.00;0.00;;;;;;;;;;5077565;28;20217;-73
2021/12/10 13:01:13;;;;;;;0.00;0.00;;;;;;;;;;5075521;28;20309;-73
2021/12/10 13:03:43;;;;;;;0.63;0.63;;;;;;;;;;5076230;28;20204;-81
2021/12/10 13:06:13;;;;;;;0.20;0.20;;;;;;;;;;5076022;28;20675;-82
2021/12/10 13:08:43;;;;;;;0.00;0.00;;;;;;;;;;5077511;28;20240;-79
2021/12/10 13:11:19;;;;;;;0.00;0.00;;;;;;;;;;5076529;28;20240;-80
2021/12/10 13:13:48;;;;;;;0.33;0.33;;;;;;;;;;5077452;28;20217;-80
2021/12/10 13:16:30;;;;;;;0.00;0.00;;;;;;;;;;5077027;28;20208;-78
2021/12/10 13:18:57;;;;;;;0.77;0.47;;;;;;;;;;5079879;28;20213;-77
2021/12/10 13:21:25;;;;;;;0.00;0.00;;;;;;;;;;5079809;28;20559;-79
2021/12/10 13:23:52;;;;;;;0.00;0.00;;;;;;;;;;5083825;28;20574;-78
2021/12/10 13:26:20;;;;;;;0.00;0.00;;;;;;;;;;5078661;28;20213;-76
2021/12/10 13:28:47;;;;;;;0.00;0.00;;;;;;;;;;5077414;28;20229;-79
2021/12/10 13:31:16;;;;;;;0.00;0.00;;;;;;;;;;5073435;28;20675;-78
2021/12/10 13:33:46;;;;;;;0.00;0.00;;;;;;;;;;5074240;28;20209;-80
2021/12/10 13:36:15;;;;;;;0.00;0.00;;;;;;;;;;5076084;28;20209;-75
2021/12/10 13:38:47;;;;;;;0.00;0.00;;;;;;;;;;5072303;28;20582;-74
2021/12/10 13:41:15;;;;;;;0.00;0.00;;;;;;;;;;5075513;28;20283;-74
2021/12/10 13:43:48;;;;;;;0.00;0.00;;;;;;;;;;5075196;28;21485;-79
2021/12/10 13:46:16;;;;;;;0.00;0.00;;;;;;;;;;5077401;28;20216;-75
2021/12/10 13:48:48;;;;;;;0.00;0.00;;;;;;;;;;5076316;28;20213;-77
2021/12/10 13:51:17;;;;;;;0.00;0.00;;;;;;;;;;5077237;28;20277;-75
2021/12/10 13:54:01;;;;;;;0.00;0.00;;;;;;;;;;5075621;28;20229;-78
2021/12/10 13:56:28;;;;;;;0.00;0.00;;;;;;;;;;5075312;28;20214;-78
2021/12/10 13:58:56;;;;;;;0.00;0.00;;;;;;;;;;5076797;28;20198;-76
2021/12/10 14:01:25;;;;;;;0.00;0.00;;;;;;;;;;5074667;28;20207;-75
2021/12/10 14:03:57;;;;;;;0.00;0.00;;;;;;;;;;5075054;28;20217;-75
2021/12/10 14:06:33;;;;;;;0.00;0.00;;;;;;;;;;5075044;28;20198;-76
2021/12/10 14:09:12;;;;;;;0.00;0.00;;;;;;;;;;5076653;28;20217;-77
2021/12/10 14:11:55;;;;;;;0.00;0.00;;;;;;;;;;5084015;28;20205;-76
2021/12/10 14:14:31;;;;;;;0.00;0.00;;;;;;;;;;5074439;28;21127;-74
2021/12/10 14:17:00;;;;;;;0.00;0.00;;;;;;;;;;5076432;28;20273;-75
2021/12/10 14:19:39;;;;;;;0.00;0.00;;;;;;;;;;5076732;28;20195;-76
2021/12/10 14:22:08;;;;;;;0.00;0.00;;;;;;;;;;5072583;28;20193;-78
2021/12/10 14:24:40;;;;;;;0.10;0.10;;;;;;;;;;5071283;28;20194;-77
2021/12/10 14:27:09;;;;;;;0.00;0.00;;;;;;;;;;5074949;28;20388;-77
2021/12/10 14:29:37;;;;;;;0.00;0.00;;;;;;;;;;5076768;28;20201;-78
2021/12/10 14:32:18;;;;;;;0.00;0.00;;;;;;;;;;5074319;28;20202;-77
2021/12/10 14:35:01;;;;;;;0.00;0.00;;;;;;;;;;5074315;28;20202;-76
2021/12/10 14:37:28;;;;;;;0.00;0.00;;;;;;;;;;5076034;28;20341;-78
2021/12/10 14:40:03;;;;;;;0.07;0.07;;;;;;;;;;5075702;28;20219;-77
2021/12/10 14:42:30;;;;;;;0.00;0.00;;;;;;;;;;5078003;28;20198;-77
2021/12/10 14:45:03;;;;;;;0.00;0.00;;;;;;;;;;5080768;28;20198;-79
2021/12/10 14:47:30;;;;;;;0.00;0.00;;;;;;;;;;5078026;28;20230;-78
2021/12/10 14:50:03;;;;;;;0.00;0.00;;;;;;;;;;5079815;28;20209;-78
2021/12/10 14:52:33;;;;;;;0.00;0.00;;;;;;;;;;5079747;28;20198;-78
2021/12/10 14:55:04;;;;;;;0.00;0.00;;;;;;;;;;5079815;28;20212;-78
2021/12/10 14:57:52;;;;;;;0.00;0.00;;;;;;;;;;5079964;28;20209;-77
2021/12/10 15:00:40;;;;;;;0.00;0.00;;;;;;;;;;5079487;28;20206;-77
2021/12/10 15:03:08;;;;;;;0.00;0.00;;;;;;;;;;5078660;28;20214;-78
2021/12/10 15:05:39;;;;;;;0.00;0.00;;;;;;;;;;5078932;28;20210;-77
2021/12/10 15:08:07;;;;;;;0.00;0.00;;;;;;;;;;5077532;28;20226;-77